sensor_id;sensor_type;location;lat;lon;timestamp;pressure;altitude;pressure_sealevel;temperature;humidity
14882;BME280;7533;51.278;12.588;2023-05-25T00:04:19;100864.94;;;26.24;53.16
14882;BME280;7533;51.278;12.588;2023-05-25T00:09:23;100869.84;;;26.19;53.12
14882;BME280;7533;51.278;12.588;2023-05-25T00:14:26;100867.78;;;26.11;53.24
14882;BME280;7533;51.278;12.588;2023-05-25T00:19:30;100866.41;;;26.05;53.71
14882;BME280;7533;51.278;12.588;2023-05-25T00:24:34;100867.91;;;25.98;53.58
14882;BME280;7533;51.278;12.588;2023-05-25T00:29:37;100873.69;;;25.94;53.95
14882;BME280;7533;51.278;12.588;2023-05-25T00:34:43;100869.47;;;25.90;53.93
14882;BME280;7533;51.278;12.588;2023-05-25T00:39:46;100880.94;;;25.82;54.39
14882;BME280;7533;51.278;12.588;2023-05-25T00:44:49;100883.38;;;25.74;54.38
14882;BME280;7533;51.278;12.588;2023-05-25T00:49:53;100882.81;;;25.69;54.82
14882;BME280;7533;51.278;12.588;2023-05-25T00:54:58;100877.75;;;25.64;55.01
14882;BME280;7533;51.278;12.588;2023-05-25T01:00:04;100880.09;;;25.57;54.86
14882;BME280;7533;51.278;12.588;2023-05-25T01:05:15;100892.16;;;25.53;55.00
14882;BME280;7533;51.278;12.588;2023-05-25T01:10:21;100885.25;;;25.49;55.14
14882;BME280;7533;51.278;12.588;2023-05-25T01:15:24;100884.72;;;25.44;55.22
14882;BME280;7533;51.278;12.588;2023-05-25T01:20:28;100882.38;;;25.40;55.37
14882;BME280;7533;51.278;12.588;2023-05-25T01:25:36;100878.06;;;25.37;55.47
14882;BME280;7533;51.278;12.588;2023-05-25T01:30:44;100880.00;;;25.35;55.68
14882;BME280;7533;51.278;12.588;2023-05-25T01:35:47;100887.53;;;25.31;55.89
14882;BME280;7533;51.278;12.588;2023-05-25T01:40:53;100884.28;;;25.26;55.92
14882;BME280;7533;51.278;12.588;2023-05-25T01:46:04;100888.22;;;25.22;56.39
14882;BME280;7533;51.278;12.588;2023-05-25T01:51:16;100888.34;;;25.21;56.47
14882;BME280;7533;51.278;12.588;2023-05-25T01:56:24;100882.41;;;25.16;56.44
14882;BME280;7533;51.278;12.588;2023-05-25T02:01:30;100884.34;;;25.14;56.41
14882;BME280;7533;51.278;12.588;2023-05-25T02:06:35;100881.00;;;25.10;56.66
14882;BME280;7533;51.278;12.588;2023-05-25T02:11:41;100889.47;;;25.05;56.48
14882;BME280;7533;51.278;12.588;2023-05-25T02:16:44;100882.44;;;25.03;56.53
14882;BME280;7533;51.278;12.588;2023-05-25T02:21:47;100881.78;;;24.99;57.01
14882;BME280;7533;51.278;12.588;2023-05-25T02:26:51;100887.41;;;24.96;56.58
14882;BME280;7533;51.278;12.588;2023-05-25T02:31:54;100880.41;;;24.94;57.05
14882;BME280;7533;51.278;12.588;2023-05-25T02:36:57;100878.88;;;24.90;57.02
14882;BME280;7533;51.278;12.588;2023-05-25T02:42:02;100882.72;;;24.87;57.10
14882;BME280;7533;51.278;12.588;2023-05-25T02:47:05;100887.25;;;24.87;57.03
14882;BME280;7533;51.278;12.588;2023-05-25T02:52:08;100877.50;;;24.84;57.11
14882;BME280;7533;51.278;12.588;2023-05-25T02:57:12;100873.19;;;24.82;57.11
14882;BME280;7533;51.278;12.588;2023-05-25T03:02:16;100885.00;;;24.80;57.46
14882;BME280;7533;51.278;12.588;2023-05-25T03:07:22;100882.50;;;24.77;57.47
14882;BME280;7533;51.278;12.588;2023-05-25T03:12:29;100889.13;;;24.73;57.56
14882;BME280;7533;51.278;12.588;2023-05-25T03:17:32;100888.50;;;24.70;57.74
14882;BME280;7533;51.278;12.588;2023-05-25T03:22:35;100891.31;;;24.68;57.80
14882;BME280;7533;51.278;12.588;2023-05-25T03:27:39;100896.97;;;24.65;58.13
14882;BME280;7533;51.278;12.588;2023-05-25T03:32:42;100895.69;;;24.58;58.27
14882;BME280;7533;51.278;12.588;2023-05-25T03:37:45;100901.44;;;24.53;58.07
14882;BME280;7533;51.278;12.588;2023-05-25T03:42:50;100906.72;;;24.55;58.08
14882;BME280;7533;51.278;12.588;2023-05-25T03:47:54;100917.88;;;24.50;58.13
14882;BME280;7533;51.278;12.588;2023-05-25T03:52:58;100916.03;;;24.51;58.20
14882;BME280;7533;51.278;12.588;2023-05-25T03:58:02;100918.84;;;24.49;58.21
14882;BME280;7533;51.278;12.588;2023-05-25T04:03:05;100926.22;;;24.47;58.04
14882;BME280;7533;51.278;12.588;2023-05-25T04:08:12;100928.28;;;24.44;58.19
14882;BME280;7533;51.278;12.588;2023-05-25T04:13:20;100931.84;;;24.44;58.07
14882;BME280;7533;51.278;12.588;2023-05-25T04:18:23;100937.38;;;24.43;57.97
14882;BME280;7533;51.278;12.588;2023-05-25T04:23:25;100950.06;;;24.42;58.11
14882;BME280;7533;51.278;12.588;2023-05-25T04:28:30;100954.59;;;24.42;57.92
14882;BME280;7533;51.278;12.588;2023-05-25T04:33:47;100952.84;;;24.41;58.02
14882;BME280;7533;51.278;12.588;2023-05-25T04:38:57;100949.38;;;24.39;58.07
14882;BME280;7533;51.278;12.588;2023-05-25T04:44:05;100950.13;;;24.41;57.94
14882;BME280;7533;51.278;12.588;2023-05-25T04:49:19;100946.56;;;24.40;58.09
14882;BME280;7533;51.278;12.588;2023-05-25T04:54:22;100954.59;;;24.42;58.03
14882;BME280;7533;51.278;12.588;2023-05-25T04:59:27;100958.25;;;24.41;58.21
14882;BME280;7533;51.278;12.588;2023-05-25T05:04:31;100948.31;;;24.41;58.22
14882;BME280;7533;51.278;12.588;2023-05-25T05:09:35;100954.59;;;24.42;58.08
14882;BME280;7533;51.278;12.588;2023-05-25T05:14:39;100957.31;;;24.42;57.93
14882;BME280;7533;51.278;12.588;2023-05-25T05:19:42;100959.03;;;24.43;58.09
14882;BME280;7533;51.278;12.588;2023-05-25T05:24:46;100977.97;;;24.43;58.28
14882;BME280;7533;51.278;12.588;2023-05-25T05:29:56;100980.56;;;24.44;58.26
14882;BME280;7533;51.278;12.588;2023-05-25T05:34:59;100978.59;;;24.46;58.21
14882;BME280;7533;51.278;12.588;2023-05-25T05:40:11;100977.72;;;24.46;58.04
14882;BME280;7533;51.278;12.588;2023-05-25T05:45:17;100995.72;;;24.47;58.01
14882;BME280;7533;51.278;12.588;2023-05-25T05:50:20;100993.03;;;24.47;58.06
14882;BME280;7533;51.278;12.588;2023-05-25T05:55:24;100999.19;;;24.49;58.11
14882;BME280;7533;51.278;12.588;2023-05-25T06:00:29;101004.47;;;24.50;58.19
14882;BME280;7533;51.278;12.588;2023-05-25T06:05:32;101007.19;;;24.50;58.19
14882;BME280;7533;51.278;12.588;2023-05-25T06:10:35;101012.41;;;24.53;58.04
14882;BME280;7533;51.278;12.588;2023-05-25T06:15:40;101007.84;;;24.54;58.30
14882;BME280;7533;51.278;12.588;2023-05-25T06:20:48;101012.16;;;24.57;58.26
14882;BME280;7533;51.278;12.588;2023-05-25T06:25:51;101012.94;;;24.59;58.08
14882;BME280;7533;51.278;12.588;2023-05-25T06:30:57;101000.16;;;24.61;58.00
14882;BME280;7533;51.278;12.588;2023-05-25T06:36:00;101002.53;;;24.65;58.02
14882;BME280;7533;51.278;12.588;2023-05-25T06:41:07;100997.13;;;24.65;57.84
14882;BME280;7533;51.278;12.588;2023-05-25T06:46:15;100996.13;;;24.66;58.08
14882;BME280;7533;51.278;12.588;2023-05-25T06:51:19;100992.44;;;24.67;57.81
14882;BME280;7533;51.278;12.588;2023-05-25T06:56:22;100998.53;;;24.71;57.78
14882;BME280;7533;51.278;12.588;2023-05-25T07:01:27;100995.69;;;24.72;57.68
14882;BME280;7533;51.278;12.588;2023-05-25T07:06:30;101002.75;;;24.75;57.91
14882;BME280;7533;51.278;12.588;2023-05-25T07:11:33;101002.75;;;24.75;57.78
14882;BME280;7533;51.278;12.588;2023-05-25T07:16:38;101001.28;;;23.66;53.54
14882;BME280;7533;51.278;12.588;2023-05-25T07:21:41;101003.13;;;23.51;53.51
14882;BME280;7533;51.278;12.588;2023-05-25T07:26:44;101017.81;;;23.20;53.69
14882;BME280;7533;51.278;12.588;2023-05-25T07:31:49;101015.13;;;23.06;53.96
14882;BME280;7533;51.278;12.588;2023-05-25T07:36:52;101017.75;;;23.07;54.27
14882;BME280;7533;51.278;12.588;2023-05-25T07:41:55;101015.81;;;23.09;53.74
14882;BME280;7533;51.278;12.588;2023-05-25T07:46:59;101007.72;;;22.81;54.53
14882;BME280;7533;51.278;12.588;2023-05-25T07:52:03;101005.13;;;22.93;54.63
14882;BME280;7533;51.278;12.588;2023-05-25T07:57:06;101010.22;;;22.98;54.18
14882;BME280;7533;51.278;12.588;2023-05-25T08:02:11;101010.31;;;22.82;54.14
14882;BME280;7533;51.278;12.588;2023-05-25T08:07:14;101020.72;;;22.60;54.48
14882;BME280;7533;51.278;12.588;2023-05-25T08:12:17;101023.03;;;22.66;53.50
14882;BME280;7533;51.278;12.588;2023-05-25T08:17:41;101020.72;;;22.60;54.01
14882;BME280;7533;51.278;12.588;2023-05-25T08:22:44;101015.53;;;22.71;53.20
14882;BME280;7533;51.278;12.588;2023-05-25T08:27:47;101017.81;;;22.34;52.13
14882;BME280;7533;51.278;12.588;2023-05-25T08:32:51;101021.78;;;22.43;52.06
14882;BME280;7533;51.278;12.588;2023-05-25T08:37:54;101025.41;;;22.28;51.27
14882;BME280;7533;51.278;12.588;2023-05-25T08:42:57;101034.66;;;22.38;51.67
14882;BME280;7533;51.278;12.588;2023-05-25T08:48:06;101028.88;;;22.30;51.32
14882;BME280;7533;51.278;12.588;2023-05-25T08:53:13;101029.84;;;22.29;51.78
14882;BME280;7533;51.278;12.588;2023-05-25T08:58:19;101029.97;;;22.41;52.13
14882;BME280;7533;51.278;12.588;2023-05-25T09:03:28;101033.53;;;22.42;52.18
14882;BME280;7533;51.278;12.588;2023-05-25T09:08:33;101039.25;;;22.22;51.94
14882;BME280;7533;51.278;12.588;2023-05-25T09:13:38;101045.84;;;22.32;51.88
14882;BME280;7533;51.278;12.588;2023-05-25T09:18:43;101041.03;;;22.37;51.76
14882;BME280;7533;51.278;12.588;2023-05-25T09:23:46;101046.69;;;22.18;51.59
14882;BME280;7533;51.278;12.588;2023-05-25T09:28:49;101037.38;;;22.08;51.70
14882;BME280;7533;51.278;12.588;2023-05-25T09:33:53;101042.28;;;22.01;52.74
14882;BME280;7533;51.278;12.588;2023-05-25T09:39:00;101044.91;;;21.87;53.15
14882;BME280;7533;51.278;12.588;2023-05-25T09:44:05;101050.84;;;22.08;51.97
14882;BME280;7533;51.278;12.588;2023-05-25T09:49:14;101056.88;;;22.13;52.25
14882;BME280;7533;51.278;12.588;2023-05-25T09:54:17;101047.81;;;21.98;51.95
14882;BME280;7533;51.278;12.588;2023-05-25T09:59:21;101059.84;;;21.92;52.41
14882;BME280;7533;51.278;12.588;2023-05-25T10:04:25;101056.50;;;22.03;51.97
14882;BME280;7533;51.278;12.588;2023-05-25T10:09:30;101059.69;;;21.96;51.90
14882;BME280;7533;51.278;12.588;2023-05-25T10:14:36;101048.09;;;21.93;52.07
14882;BME280;7533;51.278;12.588;2023-05-25T10:19:45;101046.25;;;21.94;51.18
14882;BME280;7533;51.278;12.588;2023-05-25T10:24:56;101046.38;;;21.92;52.26
14882;BME280;7533;51.278;12.588;2023-05-25T10:30:01;101054.09;;;21.99;51.62
14882;BME280;7533;51.278;12.588;2023-05-25T10:35:08;101050.19;;;21.88;51.80
14882;BME280;7533;51.278;12.588;2023-05-25T10:40:12;101046.47;;;21.91;51.53
14882;BME280;7533;51.278;12.588;2023-05-25T10:45:16;101050.56;;;21.82;52.27
14882;BME280;7533;51.278;12.588;2023-05-25T10:50:22;101052.56;;;21.95;51.49
14882;BME280;7533;51.278;12.588;2023-05-25T10:55:27;101048.47;;;21.87;50.11
14882;BME280;7533;51.278;12.588;2023-05-25T11:00:33;101047.09;;;21.80;50.86
14882;BME280;7533;51.278;12.588;2023-05-25T11:05:38;101037.91;;;21.99;51.22
14882;BME280;7533;51.278;12.588;2023-05-25T11:10:43;101040.16;;;22.06;50.54
14882;BME280;7533;51.278;12.588;2023-05-25T11:15:46;101021.72;;;21.99;49.64
14882;BME280;7533;51.278;12.588;2023-05-25T11:21:10;101036.38;;;21.95;50.96
14882;BME280;7533;51.278;12.588;2023-05-25T11:26:19;101023.25;;;21.88;51.02
14882;BME280;7533;51.278;12.588;2023-05-25T11:31:27;101022.75;;;21.82;51.44
14882;BME280;7533;51.278;12.588;2023-05-25T11:36:35;101022.69;;;21.98;51.24
14882;BME280;7533;51.278;12.588;2023-05-25T11:41:39;101018.19;;;21.68;51.18
14882;BME280;7533;51.278;12.588;2023-05-25T11:46:42;101014.66;;;22.42;50.24
14882;BME280;7533;51.278;12.588;2023-05-25T11:51:50;101014.53;;;22.43;50.10
14882;BME280;7533;51.278;12.588;2023-05-25T11:56:54;101018.31;;;22.55;49.55
14882;BME280;7533;51.278;12.588;2023-05-25T12:02:01;101013.88;;;22.54;49.15
14882;BME280;7533;51.278;12.588;2023-05-25T12:07:06;101008.75;;;22.50;48.08
14882;BME280;7533;51.278;12.588;2023-05-25T12:12:10;101007.31;;;22.30;48.73
14882;BME280;7533;51.278;12.588;2023-05-25T12:17:13;101008.38;;;22.41;49.36
14882;BME280;7533;51.278;12.588;2023-05-25T12:22:17;100996.03;;;22.37;50.29
14882;BME280;7533;51.278;12.588;2023-05-25T12:27:21;100994.97;;;22.26;51.38
14882;BME280;7533;51.278;12.588;2023-05-25T12:32:24;100995.06;;;22.38;51.18
14882;BME280;7533;51.278;12.588;2023-05-25T12:37:29;100989.13;;;22.62;49.80
14882;BME280;7533;51.278;12.588;2023-05-25T12:42:31;100983.41;;;22.66;49.54
14882;BME280;7533;51.278;12.588;2023-05-25T12:47:35;100977.09;;;22.96;48.88
14882;BME280;7533;51.278;12.588;2023-05-25T12:52:40;100976.75;;;23.15;48.79
14882;BME280;7533;51.278;12.588;2023-05-25T12:57:44;100962.56;;;23.38;48.63
14882;BME280;7533;51.278;12.588;2023-05-25T13:02:53;100958.97;;;23.52;48.75
14882;BME280;7533;51.278;12.588;2023-05-25T13:07:58;100962.00;;;23.60;49.11
14882;BME280;7533;51.278;12.588;2023-05-25T13:13:02;100973.41;;;23.65;49.30
14882;BME280;7533;51.278;12.588;2023-05-25T13:18:05;100967.41;;;23.60;50.62
14882;BME280;7533;51.278;12.588;2023-05-25T13:23:09;100963.41;;;23.53;48.83
14882;BME280;7533;51.278;12.588;2023-05-25T13:28:12;100956.78;;;23.84;48.49
14882;BME280;7533;51.278;12.588;2023-05-25T13:33:15;100954.44;;;23.92;48.38
14882;BME280;7533;51.278;12.588;2023-05-25T13:38:19;100954.56;;;24.04;48.46
14882;BME280;7533;51.278;12.588;2023-05-25T13:43:23;100945.91;;;24.11;48.86
14882;BME280;7533;51.278;12.588;2023-05-25T13:48:25;100946.78;;;24.50;48.62
14882;BME280;7533;51.278;12.588;2023-05-25T13:53:31;100943.88;;;24.53;48.81
14882;BME280;7533;51.278;12.588;2023-05-25T13:58:34;100944.94;;;24.50;49.15
14882;BME280;7533;51.278;12.588;2023-05-25T14:03:38;100933.78;;;24.55;49.12
14882;BME280;7533;51.278;12.588;2023-05-25T14:08:42;100927.94;;;24.61;49.14
14882;BME280;7533;51.278;12.588;2023-05-25T14:13:45;100926.50;;;24.68;49.55
14882;BME280;7533;51.278;12.588;2023-05-25T14:18:48;100928.75;;;24.74;48.92
14882;BME280;7533;51.278;12.588;2023-05-25T14:23:52;100917.59;;;24.79;48.81
14882;BME280;7533;51.278;12.588;2023-05-25T14:28:55;100921.34;;;24.89;49.16
14882;BME280;7533;51.278;12.588;2023-05-25T14:33:58;100909.09;;;24.96;48.71
14882;BME280;7533;51.278;12.588;2023-05-25T14:39:03;100908.22;;;23.83;48.49
14882;BME280;7533;51.278;12.588;2023-05-25T14:44:06;100920.81;;;24.09;48.42
14882;BME280;7533;51.278;12.588;2023-05-25T14:49:09;100914.53;;;24.21;46.30
14882;BME280;7533;51.278;12.588;2023-05-25T14:54:15;100909.84;;;24.62;45.96
14882;BME280;7533;51.278;12.588;2023-05-25T14:59:18;100910.31;;;24.92;45.91
14882;BME280;7533;51.278;12.588;2023-05-25T15:04:21;100911.88;;;25.08;46.38
14882;BME280;7533;51.278;12.588;2023-05-25T15:09:28;100916.28;;;25.21;46.46
14882;BME280;7533;51.278;12.588;2023-05-25T15:14:34;100916.91;;;25.49;46.43
14882;BME280;7533;51.278;12.588;2023-05-25T15:19:40;100915.44;;;25.56;46.91
14882;BME280;7533;51.278;12.588;2023-05-25T15:24:44;100913.47;;;25.58;46.70
14882;BME280;7533;51.278;12.588;2023-05-25T15:29:47;100911.44;;;25.73;47.84
14882;BME280;7533;51.278;12.588;2023-05-25T15:34:50;100911.66;;;25.94;46.88
14882;BME280;7533;51.278;12.588;2023-05-25T15:39:54;100904.03;;;26.10;47.11
14882;BME280;7533;51.278;12.588;2023-05-25T15:44:57;100890.75;;;25.13;47.24
14882;BME280;7533;51.278;12.588;2023-05-25T15:50:00;100889.22;;;26.14;45.46
14882;BME280;7533;51.278;12.588;2023-05-25T15:55:06;100879.13;;;26.61;45.66
14882;BME280;7533;51.278;12.588;2023-05-25T16:00:11;100883.25;;;26.87;45.51
14882;BME280;7533;51.278;12.588;2023-05-25T16:05:14;100872.13;;;27.13;45.58
14882;BME280;7533;51.278;12.588;2023-05-25T16:10:19;100879.47;;;27.33;45.26
14882;BME280;7533;51.278;12.588;2023-05-25T16:15:22;100875.75;;;27.34;46.06
14882;BME280;7533;51.278;12.588;2023-05-25T16:20:25;100880.13;;;27.47;46.16
14882;BME280;7533;51.278;12.588;2023-05-25T16:25:29;100873.50;;;27.39;46.47
14882;BME280;7533;51.278;12.588;2023-05-25T16:30:32;100875.75;;;27.34;46.51
14882;BME280;7533;51.278;12.588;2023-05-25T16:35:35;100876.78;;;27.22;46.30
14882;BME280;7533;51.278;12.588;2023-05-25T16:40:39;100876.38;;;27.27;46.04
14882;BME280;7533;51.278;12.588;2023-05-25T16:45:42;100873.53;;;27.28;46.06
14882;BME280;7533;51.278;12.588;2023-05-25T16:50:45;100873.25;;;26.88;46.50
14882;BME280;7533;51.278;12.588;2023-05-25T16:55:50;100873.13;;;27.12;46.40
14882;BME280;7533;51.278;12.588;2023-05-25T17:00:53;100869.50;;;27.43;45.80
14882;BME280;7533;51.278;12.588;2023-05-25T17:05:56;100863.88;;;27.56;45.41
14882;BME280;7533;51.278;12.588;2023-05-25T17:11:01;100877.81;;;27.63;45.48
14882;BME280;7533;51.278;12.588;2023-05-25T17:16:04;100869.13;;;27.69;45.33
14882;BME280;7533;51.278;12.588;2023-05-25T17:21:08;100872.84;;;27.68;45.40
14882;BME280;7533;51.278;12.588;2023-05-25T17:26:12;100876.06;;;27.73;45.36
14882;BME280;7533;51.278;12.588;2023-05-25T17:31:15;100878.03;;;27.71;45.33
14882;BME280;7533;51.278;12.588;2023-05-25T17:36:18;100882.47;;;27.72;45.22
14882;BME280;7533;51.278;12.588;2023-05-25T17:41:25;100876.16;;;27.72;45.41
14882;BME280;7533;51.278;12.588;2023-05-25T17:46:28;100878.03;;;27.71;45.65
14882;BME280;7533;51.278;12.588;2023-05-25T17:51:31;100879.50;;;27.75;45.55
14882;BME280;7533;51.278;12.588;2023-05-25T17:56:35;100891.41;;;27.63;45.91
14882;BME280;7533;51.278;12.588;2023-05-25T18:01:38;100894.59;;;27.68;45.78
14882;BME280;7533;51.278;12.588;2023-05-25T18:06:42;100880.00;;;27.69;45.68
14882;BME280;7533;51.278;12.588;2023-05-25T18:11:46;100891.28;;;27.64;45.64
14882;BME280;7533;51.278;12.588;2023-05-25T18:16:49;100884.72;;;27.67;45.50
14882;BME280;7533;51.278;12.588;2023-05-25T18:21:52;100886.84;;;27.63;45.56
14882;BME280;7533;51.278;12.588;2023-05-25T18:26:57;100895.84;;;27.64;46.11
14882;BME280;7533;51.278;12.588;2023-05-25T18:32:00;100900.28;;;27.65;46.77
14882;BME280;7533;51.278;12.588;2023-05-25T18:37:03;100895.72;;;27.65;47.14
14882;BME280;7533;51.278;12.588;2023-05-25T18:42:08;100899.72;;;27.61;47.55
14882;BME280;7533;51.278;12.588;2023-05-25T18:47:11;100892.66;;;27.59;47.88
14882;BME280;7533;51.278;12.588;2023-05-25T18:52:14;100898.09;;;27.59;47.98
14882;BME280;7533;51.278;12.588;2023-05-25T18:57:19;100905.25;;;27.60;47.82
14882;BME280;7533;51.278;12.588;2023-05-25T19:02:22;100911.56;;;27.60;48.19
14882;BME280;7533;51.278;12.588;2023-05-25T19:07:25;100913.16;;;27.63;48.17
14882;BME280;7533;51.278;12.588;2023-05-25T19:12:29;100918.84;;;27.71;48.34
14882;BME280;7533;51.278;12.588;2023-05-25T19:17:32;100931.31;;;27.74;48.19
14882;BME280;7533;51.278;12.588;2023-05-25T19:22:35;100931.72;;;27.58;48.51
14882;BME280;7533;51.278;12.588;2023-05-25T19:27:41;100943.63;;;27.57;48.63
14882;BME280;7533;51.278;12.588;2023-05-25T19:32:44;100951.38;;;27.61;48.53
14882;BME280;7533;51.278;12.588;2023-05-25T19:37:47;100956.22;;;27.58;48.81
14882;BME280;7533;51.278;12.588;2023-05-25T19:42:51;100962.38;;;27.60;48.88
14882;BME280;7533;51.278;12.588;2023-05-25T19:47:54;100960.16;;;27.54;48.89
14882;BME280;7533;51.278;12.588;2023-05-25T19:52:57;100969.19;;;27.54;49.02
14882;BME280;7533;51.278;12.588;2023-05-25T19:58:02;100967.47;;;27.53;49.08
14882;BME280;7533;51.278;12.588;2023-05-25T20:03:05;100961.50;;;27.59;49.06
14882;BME280;7533;51.278;12.588;2023-05-25T20:08:08;100969.34;;;27.53;49.33
14882;BME280;7533;51.278;12.588;2023-05-25T20:13:12;100970.53;;;27.60;49.27
14882;BME280;7533;51.278;12.588;2023-05-25T20:18:15;100981.88;;;27.65;49.20
14882;BME280;7533;51.278;12.588;2023-05-25T20:23:19;100981.16;;;27.63;49.51
14882;BME280;7533;51.278;12.588;2023-05-25T20:28:23;100987.59;;;27.62;49.60
14882;BME280;7533;51.278;12.588;2023-05-25T20:33:26;100992.53;;;27.68;49.50
14882;BME280;7533;51.278;12.588;2023-05-25T20:38:29;100994.47;;;27.66;49.40
14882;BME280;7533;51.278;12.588;2023-05-25T20:43:33;100995.63;;;27.63;49.63
14882;BME280;7533;51.278;12.588;2023-05-25T20:48:38;100995.13;;;27.70;49.49
14882;BME280;7533;51.278;12.588;2023-05-25T20:53:41;101002.53;;;27.67;49.71
14882;BME280;7533;51.278;12.588;2023-05-25T20:58:46;101003.28;;;27.70;49.64
14882;BME280;7533;51.278;12.588;2023-05-25T21:03:49;101006.38;;;27.65;49.90
14882;BME280;7533;51.278;12.588;2023-05-25T21:08:52;101010.47;;;27.71;49.94
14882;BME280;7533;51.278;12.588;2023-05-25T21:13:56;101012.16;;;27.72;49.76
14882;BME280;7533;51.278;12.588;2023-05-25T21:18:59;101019.47;;;27.71;49.75
14882;BME280;7533;51.278;12.588;2023-05-25T21:24:02;101014.53;;;27.65;50.01
14882;BME280;7533;51.278;12.588;2023-05-25T21:29:06;101018.72;;;27.69;50.03
14882;BME280;7533;51.278;12.588;2023-05-25T21:34:09;101016.75;;;27.71;50.01
14882;BME280;7533;51.278;12.588;2023-05-25T21:39:12;101018.00;;;27.67;50.08
14882;BME280;7533;51.278;12.588;2023-05-25T21:44:16;101016.28;;;27.55;50.49
14882;BME280;7533;51.278;12.588;2023-05-25T21:49:19;101016.78;;;27.49;50.55
14882;BME280;7533;51.278;12.588;2023-05-25T21:54:22;101022.25;;;27.37;50.66
14882;BME280;7533;51.278;12.588;2023-05-25T21:59:26;101026.25;;;27.33;50.75
14882;BME280;7533;51.278;12.588;2023-05-25T22:04:29;101034.16;;;27.25;51.03
14882;BME280;7533;51.278;12.588;2023-05-25T22:09:32;101036.75;;;27.15;51.35
14882;BME280;7533;51.278;12.588;2023-05-25T22:14:36;101039.13;;;27.09;51.31
14882;BME280;7533;51.278;12.588;2023-05-25T22:19:39;101037.53;;;27.06;51.48
14882;BME280;7533;51.278;12.588;2023-05-25T22:24:45;101041.31;;;27.04;51.68
14882;BME280;7533;51.278;12.588;2023-05-25T22:29:49;101036.25;;;26.99;51.81
14882;BME280;7533;51.278;12.588;2023-05-25T22:34:52;101039.34;;;26.95;51.62
14882;BME280;7533;51.278;12.588;2023-05-25T22:39:55;101032.94;;;26.96;51.79
14882;BME280;7533;51.278;12.588;2023-05-25T22:44:59;101040.72;;;27.00;51.60
14882;BME280;7533;51.278;12.588;2023-05-25T22:50:02;101034.28;;;27.01;51.84
14882;BME280;7533;51.278;12.588;2023-05-25T22:55:06;101036.53;;;27.07;51.74
14882;BME280;7533;51.278;12.588;2023-05-25T23:00:11;101030.09;;;27.08;51.59
14882;BME280;7533;51.278;12.588;2023-05-25T23:05:14;101036.13;;;27.01;51.90
14882;BME280;7533;51.278;12.588;2023-05-25T23:10:17;101035.50;;;26.97;51.92
14882;BME280;7533;51.278;12.588;2023-05-25T23:15:21;101034.88;;;26.94;51.93
14882;BME280;7533;51.278;12.588;2023-05-25T23:20:24;101030.81;;;26.88;52.14
14882;BME280;7533;51.278;12.588;2023-05-25T23:25:27;101032.78;;;26.86;52.02
14882;BME280;7533;51.278;12.588;2023-05-25T23:30:31;101030.44;;;26.81;52.14
14882;BME280;7533;51.278;12.588;2023-05-25T23:35:34;101040.09;;;26.74;52.52
14882;BME280;7533;51.278;12.588;2023-05-25T23:40:37;101034.16;;;26.69;52.69
14882;BME280;7533;51.278;12.588;2023-05-25T23:45:41;101031.06;;;26.62;52.92
14882;BME280;7533;51.278;12.588;2023-05-25T23:50:44;101037.59;;;26.60;52.59
14882;BME280;7533;51.278;12.588;2023-05-25T23:55:47;101040.31;;;26.60;52.76
